sensor_id;sensor_type;location;lat;lon;timestamp;pressure;altitude;pressure_sealevel;temperature;humidity
75051;BME280;63628;47.656;11.310;2023-05-07T00:00:55;94748.44;;;12.74;70.83
75051;BME280;63628;47.656;11.310;2023-05-07T00:03:21;94742.94;;;15.72;72.28
75051;BME280;63628;47.656;11.310;2023-05-07T00:05:50;94734.63;;;16.65;68.68
75051;BME280;63628;47.656;11.310;2023-05-07T00:08:16;94743.91;;;16.88;67.67
75051;BME280;63628;47.656;11.310;2023-05-07T00:10:43;94745.44;;;14.27;75.66
75051;BME280;63628;47.656;11.310;2023-05-07T00:13:10;94745.84;;;16.47;69.18
75051;BME280;63628;47.656;11.310;2023-05-07T00:15:36;94740.25;;;16.08;70.19
75051;BME280;63628;47.656;11.310;2023-05-07T00:18:03;94742.34;;;16.72;68.05
75051;BME280;63628;47.656;11.310;2023-05-07T00:20:30;94744.44;;;16.85;67.67
75051;BME280;63628;47.656;11.310;2023-05-07T00:22:58;94742.34;;;13.44;71.32
75051;BME280;63628;47.656;11.310;2023-05-07T00:25:25;94727.97;;;15.76;71.68
75051;BME280;63628;47.656;11.310;2023-05-07T00:27:51;94734.59;;;16.60;68.62
75051;BME280;63628;47.656;11.310;2023-05-07T00:30:18;94729.78;;;16.72;67.54
75051;BME280;63628;47.656;11.310;2023-05-07T00:32:44;94724.94;;;16.79;67.19
75051;BME280;63628;47.656;11.310;2023-05-07T00:35:12;94727.50;;;13.75;75.93
75051;BME280;63628;47.656;11.310;2023-05-07T00:37:39;94728.50;;;16.44;68.94
75051;BME280;63628;47.656;11.310;2023-05-07T00:40:08;94728.25;;;14.92;67.02
75051;BME280;63628;47.656;11.310;2023-05-07T00:42:35;94733.09;;;14.11;77.49
75051;BME280;63628;47.656;11.310;2023-05-07T00:45:04;94723.97;;;16.14;69.53
75051;BME280;63628;47.656;11.310;2023-05-07T00:47:31;94725.00;;;16.49;68.13
75051;BME280;63628;47.656;11.310;2023-05-07T00:49:58;94721.50;;;16.59;67.84
75051;BME280;63628;47.656;11.310;2023-05-07T00:52:25;94727.91;;;16.63;66.05
75051;BME280;63628;47.656;11.310;2023-05-07T00:54:52;94729.47;;;12.65;73.03
75051;BME280;63628;47.656;11.310;2023-05-07T00:57:21;94726.22;;;13.02;80.38
75051;BME280;63628;47.656;11.310;2023-05-07T00:59:48;94723.72;;;15.65;71.31
75051;BME280;63628;47.656;11.310;2023-05-07T01:02:15;94714.09;;;16.20;68.63
75051;BME280;63628;47.656;11.310;2023-05-07T01:04:41;94714.34;;;16.39;67.89
75051;BME280;63628;47.656;11.310;2023-05-07T01:07:08;94714.59;;;16.47;67.72
75051;BME280;63628;47.656;11.310;2023-05-07T01:09:36;94713.78;;;16.52;67.60
75051;BME280;63628;47.656;11.310;2023-05-07T01:12:04;94711.44;;;16.30;63.36
75051;BME280;63628;47.656;11.310;2023-05-07T01:14:32;94705.50;;;16.48;67.26
75051;BME280;63628;47.656;11.310;2023-05-07T01:16:59;94708.44;;;16.52;67.43
75051;BME280;63628;47.656;11.310;2023-05-07T01:19:28;94704.16;;;16.51;67.15
75051;BME280;63628;47.656;11.310;2023-05-07T01:22:01;94694.56;;;16.50;67.15
75051;BME280;63628;47.656;11.310;2023-05-07T01:24:31;94702.31;;;16.41;67.51
75051;BME280;63628;47.656;11.310;2023-05-07T01:26:58;94706.59;;;16.42;67.31
75051;BME280;63628;47.656;11.310;2023-05-07T01:29:24;94700.44;;;16.47;67.33
75051;BME280;63628;47.656;11.310;2023-05-07T01:31:51;94700.69;;;16.51;67.04
75051;BME280;63628;47.656;11.310;2023-05-07T01:34:20;94696.97;;;16.41;67.14
75051;BME280;63628;47.656;11.310;2023-05-07T01:36:48;94700.94;;;13.21;71.95
75051;BME280;63628;47.656;11.310;2023-05-07T01:39:16;94691.63;;;15.55;70.86
75051;BME280;63628;47.656;11.310;2023-05-07T01:41:44;94696.72;;;16.17;67.83
75051;BME280;63628;47.656;11.310;2023-05-07T01:44:12;94698.16;;;13.38;69.59
75051;BME280;63628;47.656;11.310;2023-05-07T01:46:40;94706.34;;;11.72;78.76
75051;BME280;63628;47.656;11.310;2023-05-07T01:49:06;94704.00;;;14.88;73.09
75051;BME280;63628;47.656;11.310;2023-05-07T01:51:33;94698.91;;;15.85;68.96
75051;BME280;63628;47.656;11.310;2023-05-07T01:54:00;94694.63;;;16.04;68.05
75051;BME280;63628;47.656;11.310;2023-05-07T01:56:27;94691.13;;;16.14;67.65
75051;BME280;63628;47.656;11.310;2023-05-07T01:58:55;94696.47;;;16.19;67.68
75051;BME280;63628;47.656;11.310;2023-05-07T02:01:22;94693.53;;;16.15;67.35
75051;BME280;63628;47.656;11.310;2023-05-07T02:03:49;94697.25;;;16.20;67.13
75051;BME280;63628;47.656;11.310;2023-05-07T02:06:16;94692.72;;;16.15;67.46
75051;BME280;63628;47.656;11.310;2023-05-07T02:08:42;94691.41;;;16.12;67.85
75051;BME280;63628;47.656;11.310;2023-05-07T02:11:09;94698.34;;;16.13;67.34
75051;BME280;63628;47.656;11.310;2023-05-07T02:13:36;94690.31;;;16.18;66.91
75051;BME280;63628;47.656;11.310;2023-05-07T02:16:05;94698.88;;;16.15;67.46
75051;BME280;63628;47.656;11.310;2023-05-07T02:18:32;94694.84;;;16.23;66.94
75051;BME280;63628;47.656;11.310;2023-05-07T02:20:58;94692.81;;;13.97;69.60
75051;BME280;63628;47.656;11.310;2023-05-07T02:23:25;94694.03;;;15.51;69.76
75051;BME280;63628;47.656;11.310;2023-05-07T02:25:51;94698.03;;;15.49;67.19
75051;BME280;63628;47.656;11.310;2023-05-07T02:28:18;94702.41;;;12.47;74.35
75051;BME280;63628;47.656;11.310;2023-05-07T02:30:44;94699.16;;;14.75;71.01
75051;BME280;63628;47.656;11.310;2023-05-07T02:33:12;94696.94;;;13.51;69.20
75051;BME280;63628;47.656;11.310;2023-05-07T02:35:40;94698.75;;;14.46;73.44
75051;BME280;63628;47.656;11.310;2023-05-07T02:38:07;94694.25;;;13.46;68.35
75051;BME280;63628;47.656;11.310;2023-05-07T02:40:34;94699.81;;;14.08;74.57
75051;BME280;63628;47.656;11.310;2023-05-07T02:43:05;94698.47;;;12.71;70.07
75051;BME280;63628;47.656;11.310;2023-05-07T02:45:32;94698.06;;;14.29;73.95
75051;BME280;63628;47.656;11.310;2023-05-07T02:47:59;94696.69;;;15.41;69.24
75051;BME280;63628;47.656;11.310;2023-05-07T02:50:27;94692.22;;;15.67;68.17
75051;BME280;63628;47.656;11.310;2023-05-07T02:52:54;94701.03;;;15.68;68.13
75051;BME280;63628;47.656;11.310;2023-05-07T02:55:20;94694.63;;;15.74;67.44
75051;BME280;63628;47.656;11.310;2023-05-07T02:57:47;94693.81;;;15.78;65.34
75051;BME280;63628;47.656;11.310;2023-05-07T03:00:15;94696.91;;;11.64;73.67
75051;BME280;63628;47.656;11.310;2023-05-07T03:02:42;94698.19;;;11.28;81.81
75051;BME280;63628;47.656;11.310;2023-05-07T03:05:09;94693.94;;;14.43;72.85
75051;BME280;63628;47.656;11.310;2023-05-07T03:07:38;94696.38;;;15.17;69.66
75051;BME280;63628;47.656;11.310;2023-05-07T03:10:05;94682.81;;;15.49;68.64
75051;BME280;63628;47.656;11.310;2023-05-07T03:12:32;94691.13;;;15.58;67.87
75051;BME280;63628;47.656;11.310;2023-05-07T03:14:59;94693.28;;;15.61;68.30
75051;BME280;63628;47.656;11.310;2023-05-07T03:17:25;94693.03;;;15.63;68.08
75051;BME280;63628;47.656;11.310;2023-05-07T03:19:52;94686.09;;;15.62;68.08
75051;BME280;63628;47.656;11.310;2023-05-07T03:22:19;94691.16;;;15.63;68.12
75051;BME280;63628;47.656;11.310;2023-05-07T03:24:47;94691.44;;;15.67;67.53
75051;BME280;63628;47.656;11.310;2023-05-07T03:27:14;94684.22;;;15.62;67.67
75051;BME280;63628;47.656;11.310;2023-05-07T03:29:40;94677.03;;;15.68;67.30
75051;BME280;63628;47.656;11.310;2023-05-07T03:32:07;94687.09;;;14.57;71.01
75051;BME280;63628;47.656;11.310;2023-05-07T03:34:33;94696.16;;;15.44;67.94
75051;BME280;63628;47.656;11.310;2023-05-07T03:37:00;94695.59;;;15.27;68.48
75051;BME280;63628;47.656;11.310;2023-05-07T03:39:27;94683.34;;;15.41;63.71
75051;BME280;63628;47.656;11.310;2023-05-07T03:41:55;94687.41;;;14.29;72.34
75051;BME280;63628;47.656;11.310;2023-05-07T03:44:22;94685.06;;;14.33;71.85
75051;BME280;63628;47.656;11.310;2023-05-07T03:46:48;94694.00;;;15.31;68.43
75051;BME280;63628;47.656;11.310;2023-05-07T03:49:17;94697.75;;;15.45;67.87
75051;BME280;63628;47.656;11.310;2023-05-07T03:51:44;94694.56;;;15.53;67.40
75051;BME280;63628;47.656;11.310;2023-05-07T03:54:10;94697.75;;;15.55;67.32
75051;BME280;63628;47.656;11.310;2023-05-07T03:56:37;94699.13;;;15.58;67.38
75051;BME280;63628;47.656;11.310;2023-05-07T03:59:05;94707.66;;;15.60;67.40
75051;BME280;63628;47.656;11.310;2023-05-07T04:01:32;94712.69;;;15.57;67.50
75051;BME280;63628;47.656;11.310;2023-05-07T04:03:58;94710.81;;;15.52;67.15
75051;BME280;63628;47.656;11.310;2023-05-07T04:06:25;94715.13;;;15.58;67.29
75051;BME280;63628;47.656;11.310;2023-05-07T04:08:52;94715.63;;;15.55;67.21
75051;BME280;63628;47.656;11.310;2023-05-07T04:11:18;94730.84;;;15.54;67.16
75051;BME280;63628;47.656;11.310;2023-05-07T04:13:45;94727.91;;;15.51;67.39
75051;BME280;63628;47.656;11.310;2023-05-07T04:16:13;94732.44;;;15.50;67.62
75051;BME280;63628;47.656;11.310;2023-05-07T04:18:39;94726.56;;;15.53;66.94
75051;BME280;63628;47.656;11.310;2023-05-07T04:21:13;94726.81;;;15.42;67.63
75051;BME280;63628;47.656;11.310;2023-05-07T04:23:40;94735.88;;;15.41;67.80
75051;BME280;63628;47.656;11.310;2023-05-07T04:26:07;94732.97;;;15.42;67.79
75051;BME280;63628;47.656;11.310;2023-05-07T04:28:33;94727.88;;;15.41;67.43
75051;BME280;63628;47.656;11.310;2023-05-07T04:31:00;94729.22;;;15.43;67.39
75051;BME280;63628;47.656;11.310;2023-05-07T04:33:28;94728.94;;;15.40;67.66
75051;BME280;63628;47.656;11.310;2023-05-07T04:35:55;94727.34;;;15.44;67.11
75051;BME280;63628;47.656;11.310;2023-05-07T04:38:22;94692.13;;;15.27;66.73
75051;BME280;63628;47.656;11.310;2023-05-07T04:40:49;94734.03;;;15.41;67.43
75051;BME280;63628;47.656;11.310;2023-05-07T04:43:16;94729.75;;;15.35;66.99
75051;BME280;63628;47.656;11.310;2023-05-07T04:45:43;94731.88;;;15.33;67.19
75051;BME280;63628;47.656;11.310;2023-05-07T04:48:10;94728.94;;;15.30;67.26
75051;BME280;63628;47.656;11.310;2023-05-07T04:50:38;94735.34;;;15.34;67.63
75051;BME280;63628;47.656;11.310;2023-05-07T04:53:04;94728.69;;;15.41;67.14
75051;BME280;63628;47.656;11.310;2023-05-07T04:55:33;94725.47;;;15.34;67.27
75051;BME280;63628;47.656;11.310;2023-05-07T04:58:00;94731.59;;;15.35;67.38
75051;BME280;63628;47.656;11.310;2023-05-07T05:00:28;94728.69;;;15.36;66.97
75051;BME280;63628;47.656;11.310;2023-05-07T05:02:54;94735.63;;;15.42;66.79
75051;BME280;63628;47.656;11.310;2023-05-07T05:05:21;94740.94;;;15.42;67.13
75051;BME280;63628;47.656;11.310;2023-05-07T05:07:49;94737.69;;;15.20;70.80
75051;BME280;63628;47.656;11.310;2023-05-07T05:10:18;94742.22;;;15.19;71.61
75051;BME280;63628;47.656;11.310;2023-05-07T05:12:44;94742.25;;;14.30;76.39
75051;BME280;63628;47.656;11.310;2023-05-07T05:15:11;94745.59;;;14.42;73.10
75051;BME280;63628;47.656;11.310;2023-05-07T05:17:39;94741.56;;;14.92;69.95
75051;BME280;63628;47.656;11.310;2023-05-07T05:20:06;94757.91;;;15.06;71.19
75051;BME280;63628;47.656;11.310;2023-05-07T05:22:33;94747.84;;;15.28;70.54
75051;BME280;63628;47.656;11.310;2023-05-07T05:25:01;94748.25;;;14.42;75.65
75051;BME280;63628;47.656;11.310;2023-05-07T05:27:28;94740.59;;;13.82;77.31
75051;BME280;63628;47.656;11.310;2023-05-07T05:29:55;94745.31;;;13.75;77.44
75051;BME280;63628;47.656;11.310;2023-05-07T05:32:21;94746.34;;;14.38;77.58
75051;BME280;63628;47.656;11.310;2023-05-07T05:34:48;94747.00;;;14.55;77.51
75051;BME280;63628;47.656;11.310;2023-05-07T05:37:14;94752.75;;;14.42;76.34
75051;BME280;63628;47.656;11.310;2023-05-07T05:39:41;94746.06;;;14.81;77.78
75051;BME280;63628;47.656;11.310;2023-05-07T05:42:10;94755.47;;;14.47;76.82
75051;BME280;63628;47.656;11.310;2023-05-07T05:44:36;94748.84;;;14.49;77.42
75051;BME280;63628;47.656;11.310;2023-05-07T05:47:03;94740.91;;;15.27;78.46
75051;BME280;63628;47.656;11.310;2023-05-07T05:49:30;94744.94;;;15.30;74.97
75051;BME280;63628;47.656;11.310;2023-05-07T05:51:56;94741.91;;;15.06;78.32
75051;BME280;63628;47.656;11.310;2023-05-07T05:54:23;94748.53;;;15.86;76.21
75051;BME280;63628;47.656;11.310;2023-05-07T05:56:50;94740.81;;;15.95;75.05
75051;BME280;63628;47.656;11.310;2023-05-07T05:59:18;94750.41;;;16.31;76.31
75051;BME280;63628;47.656;11.310;2023-05-07T06:01:45;94744.53;;;16.44;75.29
75051;BME280;63628;47.656;11.310;2023-05-07T06:04:12;94750.13;;;16.48;72.38
75051;BME280;63628;47.656;11.310;2023-05-07T06:06:38;94752.00;;;16.42;74.66
75051;BME280;63628;47.656;11.310;2023-05-07T06:09:05;94751.47;;;16.35;74.35
75051;BME280;63628;47.656;11.310;2023-05-07T06:11:31;94751.69;;;16.64;72.89
75051;BME280;63628;47.656;11.310;2023-05-07T06:13:58;94745.56;;;16.69;69.17
75051;BME280;63628;47.656;11.310;2023-05-07T06:16:26;94746.91;;;16.51;73.63
75051;BME280;63628;47.656;11.310;2023-05-07T06:18:53;94749.53;;;16.87;71.59
75051;BME280;63628;47.656;11.310;2023-05-07T06:21:19;94750.34;;;16.82;70.84
75051;BME280;63628;47.656;11.310;2023-05-07T06:23:46;94749.88;;;16.44;72.77
75051;BME280;63628;47.656;11.310;2023-05-07T06:26:13;94759.72;;;16.54;71.64
75051;BME280;63628;47.656;11.310;2023-05-07T06:28:39;94754.69;;;16.42;72.52
75051;BME280;63628;47.656;11.310;2023-05-07T06:31:13;94752.22;;;15.60;73.88
75051;BME280;63628;47.656;11.310;2023-05-07T06:33:42;94757.25;;;15.51;75.86
75051;BME280;63628;47.656;11.310;2023-05-07T06:36:09;94755.91;;;15.48;76.61
75051;BME280;63628;47.656;11.310;2023-05-07T06:38:35;94754.75;;;15.14;74.53
75051;BME280;63628;47.656;11.310;2023-05-07T06:41:02;94745.25;;;14.34;77.87
75051;BME280;63628;47.656;11.310;2023-05-07T06:43:29;94756.84;;;15.07;76.03
75051;BME280;63628;47.656;11.310;2023-05-07T06:45:56;94760.84;;;14.52;76.41
75051;BME280;63628;47.656;11.310;2023-05-07T06:48:22;94754.78;;;14.29;77.82
75051;BME280;63628;47.656;11.310;2023-05-07T06:50:50;94747.91;;;15.43;77.30
75051;BME280;63628;47.656;11.310;2023-05-07T06:53:17;94756.22;;;16.79;72.90
75051;BME280;63628;47.656;11.310;2023-05-07T06:55:44;94753.72;;;17.13;72.32
75051;BME280;63628;47.656;11.310;2023-05-07T06:58:10;94741.31;;;17.32;70.73
75051;BME280;63628;47.656;11.310;2023-05-07T07:00:37;94752.78;;;16.68;72.19
75051;BME280;63628;47.656;11.310;2023-05-07T07:03:04;94752.53;;;15.89;76.05
75051;BME280;63628;47.656;11.310;2023-05-07T07:05:30;94752.81;;;16.02;71.87
75051;BME280;63628;47.656;11.310;2023-05-07T07:07:58;94764.13;;;14.69;78.02
75051;BME280;63628;47.656;11.310;2023-05-07T07:10:25;94754.25;;;15.27;76.44
75051;BME280;63628;47.656;11.310;2023-05-07T07:12:52;94758.97;;;15.00;78.19
75051;BME280;63628;47.656;11.310;2023-05-07T07:15:19;94750.81;;;14.74;77.42
75051;BME280;63628;47.656;11.310;2023-05-07T07:17:48;94738.84;;;15.54;77.46
75051;BME280;63628;47.656;11.310;2023-05-07T07:20:15;94751.16;;;16.72;71.41
75051;BME280;63628;47.656;11.310;2023-05-07T07:22:42;94752.56;;;16.29;73.29
75051;BME280;63628;47.656;11.310;2023-05-07T07:25:10;94747.72;;;16.46;71.47
75051;BME280;63628;47.656;11.310;2023-05-07T07:27:37;94738.38;;;15.63;75.63
75051;BME280;63628;47.656;11.310;2023-05-07T07:30:06;94739.41;;;16.58;74.83
75051;BME280;63628;47.656;11.310;2023-05-07T07:32:34;94738.94;;;16.10;73.56
75051;BME280;63628;47.656;11.310;2023-05-07T07:35:00;94733.28;;;18.21;67.91
75051;BME280;63628;47.656;11.310;2023-05-07T07:37:27;94733.81;;;18.23;68.11
75051;BME280;63628;47.656;11.310;2023-05-07T07:39:55;94735.63;;;17.93;70.49
75051;BME280;63628;47.656;11.310;2023-05-07T07:42:23;94735.31;;;18.92;70.27
75051;BME280;63628;47.656;11.310;2023-05-07T07:44:49;94726.31;;;19.68;62.67
75051;BME280;63628;47.656;11.310;2023-05-07T07:47:16;94728.06;;;19.35;64.49
75051;BME280;63628;47.656;11.310;2023-05-07T07:49:43;94729.00;;;19.87;67.11
75051;BME280;63628;47.656;11.310;2023-05-07T07:52:09;94723.69;;;18.15;65.05
75051;BME280;63628;47.656;11.310;2023-05-07T07:54:36;94726.56;;;20.55;66.22
75051;BME280;63628;47.656;11.310;2023-05-07T07:57:03;94720.91;;;20.71;63.09
75051;BME280;63628;47.656;11.310;2023-05-07T07:59:30;94721.78;;;20.80;62.63
75051;BME280;63628;47.656;11.310;2023-05-07T08:01:57;94723.03;;;21.01;63.99
75051;BME280;63628;47.656;11.310;2023-05-07T08:04:24;94717.44;;;21.39;62.19
75051;BME280;63628;47.656;11.310;2023-05-07T08:06:51;94719.38;;;21.74;64.92
75051;BME280;63628;47.656;11.310;2023-05-07T08:09:17;94721.72;;;21.40;59.79
75051;BME280;63628;47.656;11.310;2023-05-07T08:11:44;94728.41;;;21.56;60.60
75051;BME280;63628;47.656;11.310;2023-05-07T08:14:11;94729.84;;;18.15;65.61
75051;BME280;63628;47.656;11.310;2023-05-07T08:16:39;94739.31;;;17.04;68.31
75051;BME280;63628;47.656;11.310;2023-05-07T08:19:06;94731.72;;;18.15;67.55
75051;BME280;63628;47.656;11.310;2023-05-07T08:21:32;94736.97;;;18.88;67.36
75051;BME280;63628;47.656;11.310;2023-05-07T08:24:00;94741.94;;;18.71;65.07
75051;BME280;63628;47.656;11.310;2023-05-07T08:26:26;94752.03;;;17.32;67.06
75051;BME280;63628;47.656;11.310;2023-05-07T08:28:59;94745.75;;;17.52;68.04
75051;BME280;63628;47.656;11.310;2023-05-07T08:31:25;94745.16;;;18.10;68.37
75051;BME280;63628;47.656;11.310;2023-05-07T08:33:53;94746.69;;;17.27;66.81
75051;BME280;63628;47.656;11.310;2023-05-07T08:36:20;94754.75;;;17.22;67.74
75051;BME280;63628;47.656;11.310;2023-05-07T08:38:47;94751.16;;;17.47;67.79
75051;BME280;63628;47.656;11.310;2023-05-07T08:41:13;94751.16;;;17.42;69.03
75051;BME280;63628;47.656;11.310;2023-05-07T08:43:41;94751.09;;;17.62;70.09
75051;BME280;63628;47.656;11.310;2023-05-07T08:46:09;94746.19;;;18.14;66.18
75051;BME280;63628;47.656;11.310;2023-05-07T08:48:37;94744.81;;;18.16;68.52
75051;BME280;63628;47.656;11.310;2023-05-07T08:51:05;94737.03;;;18.78;65.12
75051;BME280;63628;47.656;11.310;2023-05-07T08:53:32;94735.13;;;17.91;65.96
75051;BME280;63628;47.656;11.310;2023-05-07T08:55:59;94747.97;;;17.89;64.68
75051;BME280;63628;47.656;11.310;2023-05-07T08:58:26;94748.53;;;18.25;65.87
75051;BME280;63628;47.656;11.310;2023-05-07T09:00:53;94746.97;;;18.48;65.76
75051;BME280;63628;47.656;11.310;2023-05-07T09:03:22;94758.13;;;17.92;64.96
75051;BME280;63628;47.656;11.310;2023-05-07T09:05:48;94751.78;;;19.71;58.64
75051;BME280;63628;47.656;11.310;2023-05-07T09:08:16;94749.38;;;19.88;61.80
75051;BME280;63628;47.656;11.310;2023-05-07T09:10:44;94740.41;;;20.30;59.28
75051;BME280;63628;47.656;11.310;2023-05-07T09:13:11;94748.28;;;19.51;59.66
75051;BME280;63628;47.656;11.310;2023-05-07T09:15:39;94750.41;;;18.20;64.46
75051;BME280;63628;47.656;11.310;2023-05-07T09:18:06;94741.09;;;18.12;65.93
75051;BME280;63628;47.656;11.310;2023-05-07T09:20:33;94750.19;;;18.16;64.23
75051;BME280;63628;47.656;11.310;2023-05-07T09:22:59;94744.56;;;18.76;64.44
75051;BME280;63628;47.656;11.310;2023-05-07T09:25:32;94740.59;;;19.21;60.95
75051;BME280;63628;47.656;11.310;2023-05-07T09:27:59;94745.19;;;18.67;63.21
75051;BME280;63628;47.656;11.310;2023-05-07T09:30:27;94746.22;;;18.72;63.42
75051;BME280;63628;47.656;11.310;2023-05-07T09:32:55;94733.19;;;18.89;62.08
75051;BME280;63628;47.656;11.310;2023-05-07T09:35:22;94735.63;;;19.09;61.82
75051;BME280;63628;47.656;11.310;2023-05-07T09:37:52;94735.47;;;19.43;63.18
75051;BME280;63628;47.656;11.310;2023-05-07T09:40:23;94739.16;;;19.71;61.52
75051;BME280;63628;47.656;11.310;2023-05-07T09:42:51;94737.31;;;17.84;66.48
75051;BME280;63628;47.656;11.310;2023-05-07T09:45:22;94741.44;;;17.66;67.30
75051;BME280;63628;47.656;11.310;2023-05-07T09:47:49;94731.63;;;17.47;68.11
75051;BME280;63628;47.656;11.310;2023-05-07T09:50:22;94724.31;;;18.35;64.11
75051;BME280;63628;47.656;11.310;2023-05-07T09:52:52;94729.97;;;17.51;67.70
75051;BME280;63628;47.656;11.310;2023-05-07T09:55:19;94724.72;;;19.43;59.51
75051;BME280;63628;47.656;11.310;2023-05-07T09:57:47;94737.59;;;17.83;66.77
75051;BME280;63628;47.656;11.310;2023-05-07T10:00:17;94726.19;;;17.62;67.73
75051;BME280;63628;47.656;11.310;2023-05-07T10:02:47;94730.50;;;17.58;67.93
75051;BME280;63628;47.656;11.310;2023-05-07T10:05:16;94719.66;;;17.83;67.19
75051;BME280;63628;47.656;11.310;2023-05-07T10:07:43;94727.78;;;17.63;67.30
75051;BME280;63628;47.656;11.310;2023-05-07T10:10:11;94720.84;;;19.92;68.42
75051;BME280;63628;47.656;11.310;2023-05-07T10:12:38;94718.47;;;18.86;66.87
75051;BME280;63628;47.656;11.310;2023-05-07T10:15:07;94688.41;;;18.36;64.74
75051;BME280;63628;47.656;11.310;2023-05-07T10:17:37;94719.09;;;20.20;71.26
75051;BME280;63628;47.656;11.310;2023-05-07T10:20:07;94714.16;;;24.85;49.65
75051;BME280;63628;47.656;11.310;2023-05-07T10:22:38;94707.66;;;24.60;54.14
75051;BME280;63628;47.656;11.310;2023-05-07T10:25:08;94713.41;;;25.14;51.39
75051;BME280;63628;47.656;11.310;2023-05-07T10:27:40;94713.47;;;25.05;49.63
75051;BME280;63628;47.656;11.310;2023-05-07T10:30:17;94713.56;;;21.04;57.48
75051;BME280;63628;47.656;11.310;2023-05-07T10:32:49;94709.06;;;20.85;58.62
75051;BME280;63628;47.656;11.310;2023-05-07T10:35:20;94712.25;;;18.91;64.58
75051;BME280;63628;47.656;11.310;2023-05-07T10:37:48;94717.75;;;19.66;62.45
75051;BME280;63628;47.656;11.310;2023-05-07T10:40:15;94708.56;;;19.48;67.81
75051;BME280;63628;47.656;11.310;2023-05-07T10:42:54;94706.19;;;21.73;57.04
75051;BME280;63628;47.656;11.310;2023-05-07T10:45:22;94701.38;;;19.44;63.43
75051;BME280;63628;47.656;11.310;2023-05-07T10:48:10;94704.72;;;20.43;55.06
75051;BME280;63628;47.656;11.310;2023-05-07T10:51:20;94701.00;;;20.99;52.74
75051;BME280;63628;47.656;11.310;2023-05-07T10:53:48;94699.78;;;21.33;54.54
75051;BME280;63628;47.656;11.310;2023-05-07T10:56:25;94700.47;;;21.52;55.06
75051;BME280;63628;47.656;11.310;2023-05-07T10:58:52;94695.81;;;22.47;51.13
75051;BME280;63628;47.656;11.310;2023-05-07T11:01:49;94695.19;;;23.21;50.33
75051;BME280;63628;47.656;11.310;2023-05-07T11:04:18;94700.75;;;21.87;50.78
75051;BME280;63628;47.656;11.310;2023-05-07T11:10:02;94697.19;;;21.41;52.33
75051;BME280;63628;47.656;11.310;2023-05-07T11:12:51;94694.22;;;20.88;52.71
75051;BME280;63628;47.656;11.310;2023-05-07T11:18:19;94693.38;;;21.56;52.83
75051;BME280;63628;47.656;11.310;2023-05-07T11:20:52;94688.72;;;21.48;51.24
75051;BME280;63628;47.656;11.310;2023-05-07T11:26:43;94670.22;;;22.36;50.06
75051;BME280;63628;47.656;11.310;2023-05-07T11:29:12;94663.69;;;21.47;55.80
75051;BME280;63628;47.656;11.310;2023-05-07T11:31:39;94670.47;;;22.26;54.23
75051;BME280;63628;47.656;11.310;2023-05-07T11:34:06;94672.53;;;20.06;60.69
75051;BME280;63628;47.656;11.310;2023-05-07T11:36:35;94674.09;;;20.25;60.53
75051;BME280;63628;47.656;11.310;2023-05-07T11:39:23;94668.91;;;21.66;52.07
75051;BME280;63628;47.656;11.310;2023-05-07T11:41:50;94671.84;;;21.56;53.81
75051;BME280;63628;47.656;11.310;2023-05-07T11:44:18;94679.06;;;21.69;52.17
75051;BME280;63628;47.656;11.310;2023-05-07T11:46:45;94685.69;;;21.86;51.08
75051;BME280;63628;47.656;11.310;2023-05-07T11:49:12;94683.44;;;21.02;52.26
75051;BME280;63628;47.656;11.310;2023-05-07T11:51:40;94675.53;;;22.05;50.58
75051;BME280;63628;47.656;11.310;2023-05-07T11:54:08;94670.75;;;22.46;51.84
75051;BME280;63628;47.656;11.310;2023-05-07T11:56:37;94684.22;;;21.43;56.18
75051;BME280;63628;47.656;11.310;2023-05-07T11:59:04;94686.03;;;21.48;55.61
75051;BME280;63628;47.656;11.310;2023-05-07T12:01:31;94688.59;;;21.39;56.04
75051;BME280;63628;47.656;11.310;2023-05-07T12:03:58;94690.78;;;21.87;55.10
75051;BME280;63628;47.656;11.310;2023-05-07T12:06:25;94680.34;;;21.72;56.25
75051;BME280;63628;47.656;11.310;2023-05-07T12:08:53;94678.94;;;21.97;55.16
75051;BME280;63628;47.656;11.310;2023-05-07T12:11:25;94663.41;;;22.38;52.17
75051;BME280;63628;47.656;11.310;2023-05-07T12:13:53;94667.19;;;22.68;53.20
75051;BME280;63628;47.656;11.310;2023-05-07T12:16:25;94670.75;;;22.46;53.54
75051;BME280;63628;47.656;11.310;2023-05-07T12:18:53;94658.59;;;22.66;52.08
75051;BME280;63628;47.656;11.310;2023-05-07T12:21:21;94658.44;;;22.63;49.76
75051;BME280;63628;47.656;11.310;2023-05-07T12:23:48;94654.63;;;22.64;50.28
75051;BME280;63628;47.656;11.310;2023-05-07T12:26:16;94652.78;;;22.11;56.23
75051;BME280;63628;47.656;11.310;2023-05-07T12:28:43;94653.66;;;22.60;50.94
75051;BME280;63628;47.656;11.310;2023-05-07T12:31:10;94654.84;;;22.76;50.89
75051;BME280;63628;47.656;11.310;2023-05-07T12:33:36;94653.00;;;22.85;52.79
75051;BME280;63628;47.656;11.310;2023-05-07T12:36:05;94651.31;;;22.67;50.65
75051;BME280;63628;47.656;11.310;2023-05-07T12:38:38;94649.38;;;22.59;50.47
75051;BME280;63628;47.656;11.310;2023-05-07T12:41:07;94652.25;;;22.62;54.06
75051;BME280;63628;47.656;11.310;2023-05-07T12:43:35;94648.84;;;22.17;49.71
75051;BME280;63628;47.656;11.310;2023-05-07T12:46:04;94642.63;;;22.39;51.99
75051;BME280;63628;47.656;11.310;2023-05-07T12:48:31;94638.56;;;22.59;53.00
75051;BME280;63628;47.656;11.310;2023-05-07T12:51:00;94640.22;;;22.37;51.54
75051;BME280;63628;47.656;11.310;2023-05-07T12:53:27;94643.44;;;22.48;51.89
75051;BME280;63628;47.656;11.310;2023-05-07T12:55:55;94646.28;;;22.43;50.84
75051;BME280;63628;47.656;11.310;2023-05-07T12:58:25;94655.41;;;22.25;51.75
75051;BME280;63628;47.656;11.310;2023-05-07T13:00:55;94664.78;;;22.27;49.55
75051;BME280;63628;47.656;11.310;2023-05-07T13:03:27;94666.69;;;21.32;53.27